sensor_id;sensor_type;location;lat;lon;timestamp;pressure;altitude;pressure_sealevel;temperature;humidity
47809;BME280;33573;38.790;-77.084;2023-12-20T00:01:33;102412.88;;;18.06;24.69
47809;BME280;33573;38.790;-77.084;2023-12-20T00:03:54;102421.67;;;18.07;24.68
47809;BME280;33573;38.790;-77.084;2023-12-20T00:06:19;102426.58;;;18.25;24.67
47809;BME280;33573;38.790;-77.084;2023-12-20T00:08:49;102425.75;;;18.58;24.75
47809;BME280;33573;38.790;-77.084;2023-12-20T00:11:10;102429.36;;;18.30;24.64
47809;BME280;33573;38.790;-77.084;2023-12-20T00:13:36;102429.76;;;18.02;24.68
47809;BME280;33573;38.790;-77.084;2023-12-20T00:16:05;102430.64;;;18.28;24.59
47809;BME280;33573;38.790;-77.084;2023-12-20T00:18:27;102427.24;;;18.27;24.45
47809;BME280;33573;38.790;-77.084;2023-12-20T00:20:52;102431.00;;;17.83;24.73
47809;BME280;33573;38.790;-77.084;2023-12-20T00:23:12;102437.39;;;18.14;24.71
47809;BME280;33573;38.790;-77.084;2023-12-20T00:25:43;102445.30;;;17.99;24.70
47809;BME280;33573;38.790;-77.084;2023-12-20T00:28:08;102449.37;;;18.27;24.93
47809;BME280;33573;38.790;-77.084;2023-12-20T00:30:38;102452.90;;;18.09;24.99
47809;BME280;33573;38.790;-77.084;2023-12-20T00:32:59;102456.01;;;18.05;25.14
47809;BME280;33573;38.790;-77.084;2023-12-20T00:35:20;102459.66;;;18.26;24.99
47809;BME280;33573;38.790;-77.084;2023-12-20T00:37:54;102464.36;;;18.23;25.05
47809;BME280;33573;38.790;-77.084;2023-12-20T00:40:16;102468.28;;;17.82;25.19
47809;BME280;33573;38.790;-77.084;2023-12-20T00:42:41;102468.63;;;18.21;25.10
47809;BME280;33573;38.790;-77.084;2023-12-20T00:45:11;102474.70;;;18.08;25.01
47809;BME280;33573;38.790;-77.084;2023-12-20T00:47:32;102478.83;;;18.33;25.02
47809;BME280;33573;38.790;-77.084;2023-12-20T00:49:58;102479.22;;;17.84;25.04
47809;BME280;33573;38.790;-77.084;2023-12-20T00:52:27;102484.84;;;18.28;25.04
47809;BME280;33573;38.790;-77.084;2023-12-20T00:54:48;102490.32;;;18.09;25.43
47809;BME280;33573;38.790;-77.084;2023-12-20T00:57:09;102496.33;;;18.27;25.09
47809;BME280;33573;38.790;-77.084;2023-12-20T00:59:43;102502.66;;;18.41;25.00
47809;BME280;33573;38.790;-77.084;2023-12-20T01:02:05;102502.42;;;18.43;25.12
47809;BME280;33573;38.790;-77.084;2023-12-20T01:04:30;102498.27;;;18.14;25.10
47809;BME280;33573;38.790;-77.084;2023-12-20T01:07:00;102498.85;;;18.49;25.32
47809;BME280;33573;38.790;-77.084;2023-12-20T01:09:21;102501.97;;;17.84;26.17
47809;BME280;33573;38.790;-77.084;2023-12-20T01:11:46;102510.30;;;18.35;25.08
47809;BME280;33573;38.790;-77.084;2023-12-20T01:14:16;102518.49;;;18.24;25.01
47809;BME280;33573;38.790;-77.084;2023-12-20T01:16:37;102527.41;;;18.18;24.98
47809;BME280;33573;38.790;-77.084;2023-12-20T01:21:24;102536.90;;;18.31;24.90
47809;BME280;33573;38.790;-77.084;2023-12-20T01:23:48;102537.83;;;18.15;24.93
47809;BME280;33573;38.790;-77.084;2023-12-20T01:26:15;102541.15;;;18.24;25.32
47809;BME280;33573;38.790;-77.084;2023-12-20T01:28:39;102544.42;;;18.41;25.23
47809;BME280;33573;38.790;-77.084;2023-12-20T01:31:08;102543.89;;;18.58;25.22
47809;BME280;33573;38.790;-77.084;2023-12-20T01:33:30;102548.30;;;18.16;24.77
47809;BME280;33573;38.790;-77.084;2023-12-20T01:35:56;102551.45;;;18.59;24.80
47809;BME280;33573;38.790;-77.084;2023-12-20T01:38:21;102556.48;;;18.13;24.91
47809;BME280;33573;38.790;-77.084;2023-12-20T01:40:47;102560.13;;;18.10;25.03
47809;BME280;33573;38.790;-77.084;2023-12-20T01:43:12;102557.40;;;18.31;24.99
47809;BME280;33573;38.790;-77.084;2023-12-20T01:45:38;102561.96;;;18.59;24.86
47809;BME280;33573;38.790;-77.084;2023-12-20T01:48:05;102568.52;;;18.64;25.07
47809;BME280;33573;38.790;-77.084;2023-12-20T01:50:30;102565.55;;;18.38;24.91
47809;BME280;33573;38.790;-77.084;2023-12-20T01:52:55;102571.43;;;18.18;25.30
47809;BME280;33573;38.790;-77.084;2023-12-20T01:55:20;102565.43;;;18.11;25.50
47809;BME280;33573;38.790;-77.084;2023-12-20T01:57:45;102565.13;;;18.00;25.60
47809;BME280;33573;38.790;-77.084;2023-12-20T02:00:12;102572.31;;;18.16;25.58
47809;BME280;33573;38.790;-77.084;2023-12-20T02:02:41;102576.46;;;17.99;25.67
47809;BME280;33573;38.790;-77.084;2023-12-20T02:05:01;102582.16;;;18.22;25.45
47809;BME280;33573;38.790;-77.084;2023-12-20T02:07:27;102588.43;;;17.72;26.02
47809;BME280;33573;38.790;-77.084;2023-12-20T02:09:52;102593.87;;;17.53;26.28
47809;BME280;33573;38.790;-77.084;2023-12-20T02:12:19;102602.23;;;17.40;26.41
47809;BME280;33573;38.790;-77.084;2023-12-20T02:14:43;102609.66;;;16.99;27.29
47809;BME280;33573;38.790;-77.084;2023-12-20T02:17:09;102612.65;;;17.07;26.91
47809;BME280;33573;38.790;-77.084;2023-12-20T02:19:34;102611.03;;;17.85;26.57
47809;BME280;33573;38.790;-77.084;2023-12-20T02:22:08;102612.95;;;17.40;26.80
47809;BME280;33573;38.790;-77.084;2023-12-20T02:24:25;102616.23;;;17.49;26.88
47809;BME280;33573;38.790;-77.084;2023-12-20T02:26:50;102619.37;;;16.78;27.08
47809;BME280;33573;38.790;-77.084;2023-12-20T02:29:16;102621.80;;;16.65;27.34
47809;BME280;33573;38.790;-77.084;2023-12-20T02:31:41;102621.94;;;16.72;27.30
47809;BME280;33573;38.790;-77.084;2023-12-20T02:34:07;102629.58;;;17.24;27.16
47809;BME280;33573;38.790;-77.084;2023-12-20T02:36:32;102631.37;;;17.13;27.28
47809;BME280;33573;38.790;-77.084;2023-12-20T02:38:58;102633.67;;;17.22;27.10
47809;BME280;33573;38.790;-77.084;2023-12-20T02:41:23;102634.23;;;17.26;27.11
47809;BME280;33573;38.790;-77.084;2023-12-20T02:43:49;102633.68;;;17.05;26.94
47809;BME280;33573;38.790;-77.084;2023-12-20T02:46:16;102634.70;;;17.17;27.02
47809;BME280;33573;38.790;-77.084;2023-12-20T02:48:40;102637.05;;;16.81;26.88
47809;BME280;33573;38.790;-77.084;2023-12-20T02:51:05;102636.78;;;16.98;26.95
47809;BME280;33573;38.790;-77.084;2023-12-20T02:53:31;102638.95;;;16.95;26.92
47809;BME280;33573;38.790;-77.084;2023-12-20T02:55:56;102641.57;;;16.91;26.77
47809;BME280;33573;38.790;-77.084;2023-12-20T02:58:21;102647.15;;;16.84;26.84
47809;BME280;33573;38.790;-77.084;2023-12-20T03:00:47;102652.27;;;16.81;26.78
47809;BME280;33573;38.790;-77.084;2023-12-20T03:03:12;102650.75;;;16.81;26.72
47809;BME280;33573;38.790;-77.084;2023-12-20T03:05:38;102656.32;;;16.78;26.73
47809;BME280;33573;38.790;-77.084;2023-12-20T03:08:04;102654.22;;;16.68;26.69
47809;BME280;33573;38.790;-77.084;2023-12-20T03:10:29;102658.00;;;16.69;26.62
47809;BME280;33573;38.790;-77.084;2023-12-20T03:12:54;102656.43;;;16.66;26.63
47809;BME280;33573;38.790;-77.084;2023-12-20T03:15:25;102659.43;;;16.64;26.56
47809;BME280;33573;38.790;-77.084;2023-12-20T03:17:45;102663.45;;;16.58;26.56
47809;BME280;33573;38.790;-77.084;2023-12-20T03:20:11;102667.25;;;16.57;26.56
47809;BME280;33573;38.790;-77.084;2023-12-20T03:22:36;102677.50;;;16.48;26.59
47809;BME280;33573;38.790;-77.084;2023-12-20T03:25:02;102685.12;;;16.45;26.53
47809;BME280;33573;38.790;-77.084;2023-12-20T03:27:27;102686.99;;;16.51;26.43
47809;BME280;33573;38.790;-77.084;2023-12-20T03:29:53;102687.25;;;16.42;26.48
47809;BME280;33573;38.790;-77.084;2023-12-20T03:32:18;102686.52;;;16.57;26.51
47809;BME280;33573;38.790;-77.084;2023-12-20T03:34:44;102687.17;;;16.62;26.44
47809;BME280;33573;38.790;-77.084;2023-12-20T03:37:09;102685.88;;;16.31;26.41
47809;BME280;33573;38.790;-77.084;2023-12-20T03:39:40;102684.60;;;16.50;26.47
47809;BME280;33573;38.790;-77.084;2023-12-20T03:42:00;102689.88;;;16.22;26.37
47809;BME280;33573;38.790;-77.084;2023-12-20T03:44:25;102697.72;;;16.46;26.35
47809;BME280;33573;38.790;-77.084;2023-12-20T03:46:51;102698.81;;;16.39;26.38
47809;BME280;33573;38.790;-77.084;2023-12-20T03:49:16;102699.71;;;16.36;26.35
47809;BME280;33573;38.790;-77.084;2023-12-20T03:51:42;102703.00;;;16.11;26.32
47809;BME280;33573;38.790;-77.084;2023-12-20T03:54:07;102706.48;;;16.06;26.29
47809;BME280;33573;38.790;-77.084;2023-12-20T03:56:33;102705.39;;;15.97;26.36
47809;BME280;33573;38.790;-77.084;2023-12-20T03:58:58;102705.37;;;16.41;26.35
47809;BME280;33573;38.790;-77.084;2023-12-20T04:01:24;102700.52;;;16.12;26.29
47809;BME280;33573;38.790;-77.084;2023-12-20T04:03:49;102705.23;;;16.33;26.28
47809;BME280;33573;38.790;-77.084;2023-12-20T04:06:17;102707.41;;;16.36;26.18
47809;BME280;33573;38.790;-77.084;2023-12-20T04:08:40;102705.60;;;16.05;26.25
47809;BME280;33573;38.790;-77.084;2023-12-20T04:11:06;102701.94;;;16.04;26.22
47809;BME280;33573;38.790;-77.084;2023-12-20T04:13:31;102700.72;;;16.01;26.29
47809;BME280;33573;38.790;-77.084;2023-12-20T04:15:57;102701.07;;;15.97;26.27
47809;BME280;33573;38.790;-77.084;2023-12-20T04:18:22;102707.66;;;16.14;26.30
47809;BME280;33573;38.790;-77.084;2023-12-20T04:20:48;102707.44;;;15.93;26.20
47809;BME280;33573;38.790;-77.084;2023-12-20T04:23:18;102706.66;;;15.85;26.29
47809;BME280;33573;38.790;-77.084;2023-12-20T04:25:39;102711.69;;;16.05;26.25
47809;BME280;33573;38.790;-77.084;2023-12-20T04:28:04;102715.84;;;15.99;26.24
47809;BME280;33573;38.790;-77.084;2023-12-20T04:30:30;102721.31;;;15.71;26.26
47809;BME280;33573;38.790;-77.084;2023-12-20T04:32:55;102717.16;;;15.95;26.23
47809;BME280;33573;38.790;-77.084;2023-12-20T04:35:21;102714.07;;;15.71;26.17
47809;BME280;33573;38.790;-77.084;2023-12-20T04:37:46;102712.49;;;15.63;26.22
47809;BME280;33573;38.790;-77.084;2023-12-20T04:40:12;102715.46;;;15.84;26.25
47809;BME280;33573;38.790;-77.084;2023-12-20T04:42:37;102715.63;;;15.83;26.22
47809;BME280;33573;38.790;-77.084;2023-12-20T04:45:03;102717.54;;;15.77;26.27
47809;BME280;33573;38.790;-77.084;2023-12-20T04:47:28;102717.70;;;15.82;26.16
47809;BME280;33573;38.790;-77.084;2023-12-20T04:49:53;102714.56;;;15.71;26.29
47809;BME280;33573;38.790;-77.084;2023-12-20T04:52:19;102719.19;;;15.62;26.38
47809;BME280;33573;38.790;-77.084;2023-12-20T04:54:44;102721.63;;;15.65;26.30
47809;BME280;33573;38.790;-77.084;2023-12-20T04:57:10;102720.51;;;15.66;26.21
47809;BME280;33573;38.790;-77.084;2023-12-20T04:59:35;102722.63;;;15.69;26.17
47809;BME280;33573;38.790;-77.084;2023-12-20T05:02:01;102721.31;;;15.61;26.25
47809;BME280;33573;38.790;-77.084;2023-12-20T05:04:26;102715.94;;;15.63;26.23
47809;BME280;33573;38.790;-77.084;2023-12-20T05:06:52;102714.32;;;15.62;26.18
47809;BME280;33573;38.790;-77.084;2023-12-20T05:09:17;102709.19;;;15.56;26.20
47809;BME280;33573;38.790;-77.084;2023-12-20T05:11:48;102709.28;;;15.52;26.19
47809;BME280;33573;38.790;-77.084;2023-12-20T05:14:08;102716.58;;;15.44;26.24
47809;BME280;33573;38.790;-77.084;2023-12-20T05:16:39;102718.87;;;15.45;26.20
47809;BME280;33573;38.790;-77.084;2023-12-20T05:19:04;102720.08;;;15.33;26.25
47809;BME280;33573;38.790;-77.084;2023-12-20T05:21:30;102722.55;;;15.35;26.20
47809;BME280;33573;38.790;-77.084;2023-12-20T05:23:55;102724.07;;;15.39;26.18
47809;BME280;33573;38.790;-77.084;2023-12-20T05:26:21;102718.70;;;15.29;26.30
47809;BME280;33573;38.790;-77.084;2023-12-20T05:28:50;102721.13;;;15.52;26.23
47809;BME280;33573;38.790;-77.084;2023-12-20T05:31:12;102725.88;;;15.29;26.21
47809;BME280;33573;38.790;-77.084;2023-12-20T05:33:37;102725.12;;;15.30;26.13
47809;BME280;33573;38.790;-77.084;2023-12-20T05:36:07;102729.04;;;15.45;26.20
47809;BME280;33573;38.790;-77.084;2023-12-20T05:38:28;102731.74;;;15.50;26.07
47809;BME280;33573;38.790;-77.084;2023-12-20T05:40:54;102741.64;;;15.14;26.19
47809;BME280;33573;38.790;-77.084;2023-12-20T05:43:23;102739.10;;;15.68;26.09
47809;BME280;33573;38.790;-77.084;2023-12-20T05:45:45;102737.19;;;15.20;26.16
47809;BME280;33573;38.790;-77.084;2023-12-20T05:48:10;102739.84;;;15.23;26.04
47809;BME280;33573;38.790;-77.084;2023-12-20T05:50:40;102740.06;;;15.11;26.13
47809;BME280;33573;38.790;-77.084;2023-12-20T05:53:01;102740.55;;;15.17;26.07
47809;BME280;33573;38.790;-77.084;2023-12-20T05:55:21;102742.28;;;15.18;26.06
47809;BME280;33573;38.790;-77.084;2023-12-20T05:57:47;102744.70;;;15.39;26.01
47809;BME280;33573;38.790;-77.084;2023-12-20T06:00:13;102745.81;;;15.06;26.05
47809;BME280;33573;38.790;-77.084;2023-12-20T06:02:38;102749.88;;;15.51;26.09
47809;BME280;33573;38.790;-77.084;2023-12-20T06:05:04;102751.26;;;15.02;26.12
47809;BME280;33573;38.790;-77.084;2023-12-20T06:07:29;102749.62;;;15.31;26.02
47809;BME280;33573;38.790;-77.084;2023-12-20T06:09:54;102750.50;;;15.04;26.04
47809;BME280;33573;38.790;-77.084;2023-12-20T06:12:20;102754.34;;;15.27;26.01
47809;BME280;33573;38.790;-77.084;2023-12-20T06:14:50;102758.66;;;15.25;26.01
47809;BME280;33573;38.790;-77.084;2023-12-20T06:17:11;102759.95;;;14.90;26.14
47809;BME280;33573;38.790;-77.084;2023-12-20T06:19:36;102760.38;;;15.38;26.03
47809;BME280;33573;38.790;-77.084;2023-12-20T06:22:11;102759.80;;;14.89;26.09
47809;BME280;33573;38.790;-77.084;2023-12-20T06:24:27;102761.44;;;15.00;26.00
47809;BME280;33573;38.790;-77.084;2023-12-20T06:26:53;102758.43;;;15.46;25.94
47809;BME280;33573;38.790;-77.084;2023-12-20T06:29:18;102754.17;;;14.87;26.00
47809;BME280;33573;38.790;-77.084;2023-12-20T06:31:44;102757.74;;;15.14;25.94
47809;BME280;33573;38.790;-77.084;2023-12-20T06:34:09;102761.13;;;15.35;25.95
47809;BME280;33573;38.790;-77.084;2023-12-20T06:36:35;102763.68;;;15.39;25.86
47809;BME280;33573;38.790;-77.084;2023-12-20T06:39:00;102762.28;;;15.32;26.03
47809;BME280;33573;38.790;-77.084;2023-12-20T06:41:26;102759.96;;;15.11;25.91
47809;BME280;33573;38.790;-77.084;2023-12-20T06:43:51;102761.81;;;15.07;25.90
47809;BME280;33573;38.790;-77.084;2023-12-20T06:46:17;102760.77;;;15.04;25.93
47809;BME280;33573;38.790;-77.084;2023-12-20T06:48:42;102757.91;;;15.06;25.89
47809;BME280;33573;38.790;-77.084;2023-12-20T06:51:12;102758.97;;;14.78;25.88
47809;BME280;33573;38.790;-77.084;2023-12-20T06:53:33;102758.69;;;15.05;25.84
47809;BME280;33573;38.790;-77.084;2023-12-20T06:55:58;102756.86;;;15.03;25.86
47809;BME280;33573;38.790;-77.084;2023-12-20T06:58:24;102756.44;;;14.76;25.89
47809;BME280;33573;38.790;-77.084;2023-12-20T07:00:50;102759.88;;;14.89;25.97
47809;BME280;33573;38.790;-77.084;2023-12-20T07:03:15;102768.34;;;15.18;25.87
47809;BME280;33573;38.790;-77.084;2023-12-20T07:05:40;102768.59;;;14.97;25.81
47809;BME280;33573;38.790;-77.084;2023-12-20T07:08:06;102771.52;;;14.67;25.80
47809;BME280;33573;38.790;-77.084;2023-12-20T07:10:31;102769.23;;;15.25;25.66
47809;BME280;33573;38.790;-77.084;2023-12-20T07:12:57;102773.74;;;15.20;25.75
47809;BME280;33573;38.790;-77.084;2023-12-20T07:15:22;102781.60;;;15.11;25.86
47809;BME280;33573;38.790;-77.084;2023-12-20T07:17:48;102782.38;;;15.19;25.78
47809;BME280;33573;38.790;-77.084;2023-12-20T07:20:13;102787.11;;;14.66;25.79
47809;BME280;33573;38.790;-77.084;2023-12-20T07:22:39;102785.65;;;15.15;25.73
47809;BME280;33573;38.790;-77.084;2023-12-20T07:25:05;102786.15;;;15.13;25.73
47809;BME280;33573;38.790;-77.084;2023-12-20T07:27:30;102782.08;;;15.12;25.77
47809;BME280;33573;38.790;-77.084;2023-12-20T07:29:55;102779.85;;;15.03;25.81
47809;BME280;33573;38.790;-77.084;2023-12-20T07:32:21;102779.09;;;14.98;25.86
47809;BME280;33573;38.790;-77.084;2023-12-20T07:34:46;102775.93;;;14.55;25.78
47809;BME280;33573;38.790;-77.084;2023-12-20T07:37:12;102772.40;;;15.04;25.75
47809;BME280;33573;38.790;-77.084;2023-12-20T07:39:37;102766.98;;;15.05;25.69
47809;BME280;33573;38.790;-77.084;2023-12-20T07:42:03;102764.35;;;15.03;25.72
47809;BME280;33573;38.790;-77.084;2023-12-20T07:44:28;102761.03;;;14.95;25.78
47809;BME280;33573;38.790;-77.084;2023-12-20T07:46:54;102758.35;;;14.99;25.71
47809;BME280;33573;38.790;-77.084;2023-12-20T07:49:19;102758.60;;;14.91;25.82
47809;BME280;33573;38.790;-77.084;2023-12-20T07:51:45;102760.45;;;14.44;25.74
47809;BME280;33573;38.790;-77.084;2023-12-20T07:54:10;102763.71;;;14.44;25.71
47809;BME280;33573;38.790;-77.084;2023-12-20T07:56:36;102764.92;;;14.87;25.73
47809;BME280;33573;38.790;-77.084;2023-12-20T07:59:01;102768.07;;;14.81;25.78
47809;BME280;33573;38.790;-77.084;2023-12-20T08:01:27;102770.88;;;14.59;25.73
47809;BME280;33573;38.790;-77.084;2023-12-20T08:03:52;102777.59;;;14.57;25.77
47809;BME280;33573;38.790;-77.084;2023-12-20T08:06:18;102778.84;;;14.57;25.77
47809;BME280;33573;38.790;-77.084;2023-12-20T08:08:43;102780.30;;;14.80;25.73
47809;BME280;33573;38.790;-77.084;2023-12-20T08:11:09;102779.57;;;14.55;25.75
47809;BME280;33573;38.790;-77.084;2023-12-20T08:13:34;102779.36;;;14.75;25.73
47809;BME280;33573;38.790;-77.084;2023-12-20T08:16:00;102777.39;;;14.43;25.83
47809;BME280;33573;38.790;-77.084;2023-12-20T08:18:25;102774.61;;;14.74;25.75
47809;BME280;33573;38.790;-77.084;2023-12-20T08:20:51;102778.67;;;14.72;25.82
47809;BME280;33573;38.790;-77.084;2023-12-20T08:23:16;102778.54;;;14.66;25.76
47809;BME280;33573;38.790;-77.084;2023-12-20T08:25:42;102778.38;;;14.69;25.77
47809;BME280;33573;38.790;-77.084;2023-12-20T08:28:07;102775.99;;;14.47;25.74
47809;BME280;33573;38.790;-77.084;2023-12-20T08:30:32;102777.16;;;14.68;25.65
47809;BME280;33573;38.790;-77.084;2023-12-20T08:33:00;102773.01;;;14.63;25.74
47809;BME280;33573;38.790;-77.084;2023-12-20T08:35:23;102771.15;;;14.85;25.69
47809;BME280;33573;38.790;-77.084;2023-12-20T08:37:49;102773.90;;;14.60;25.67
47809;BME280;33573;38.790;-77.084;2023-12-20T08:40:15;102774.31;;;14.58;25.67
47809;BME280;33573;38.790;-77.084;2023-12-20T08:42:40;102773.09;;;14.53;25.71
47809;BME280;33573;38.790;-77.084;2023-12-20T08:45:07;102774.09;;;14.46;25.71
47809;BME280;33573;38.790;-77.084;2023-12-20T08:47:31;102770.87;;;14.42;25.75
47809;BME280;33573;38.790;-77.084;2023-12-20T08:49:56;102769.08;;;14.48;25.71
47809;BME280;33573;38.790;-77.084;2023-12-20T08:52:22;102766.12;;;14.44;25.75
47809;BME280;33573;38.790;-77.084;2023-12-20T08:54:47;102764.14;;;14.70;25.74
47809;BME280;33573;38.790;-77.084;2023-12-20T08:57:13;102759.27;;;14.44;25.66
47809;BME280;33573;38.790;-77.084;2023-12-20T08:59:38;102759.27;;;14.41;25.71
47809;BME280;33573;38.790;-77.084;2023-12-20T09:02:04;102761.70;;;14.14;25.73
47809;BME280;33573;38.790;-77.084;2023-12-20T09:04:29;102763.25;;;14.47;25.62
47809;BME280;33573;38.790;-77.084;2023-12-20T09:06:55;102764.46;;;14.62;25.66
47809;BME280;33573;38.790;-77.084;2023-12-20T09:09:20;102760.94;;;14.78;25.75
47809;BME280;33573;38.790;-77.084;2023-12-20T09:11:46;102756.72;;;14.33;25.69
47809;BME280;33573;38.790;-77.084;2023-12-20T09:14:11;102757.37;;;14.37;25.64
47809;BME280;33573;38.790;-77.084;2023-12-20T09:16:37;102750.64;;;14.04;25.68
47809;BME280;33573;38.790;-77.084;2023-12-20T09:19:02;102751.89;;;14.28;25.69
47809;BME280;33573;38.790;-77.084;2023-12-20T09:21:33;102755.45;;;14.39;25.57
47809;BME280;33573;38.790;-77.084;2023-12-20T09:23:53;102757.28;;;14.33;25.52
47809;BME280;33573;38.790;-77.084;2023-12-20T09:26:19;102759.99;;;14.62;25.51
47809;BME280;33573;38.790;-77.084;2023-12-20T09:28:45;102760.11;;;14.58;25.53
47809;BME280;33573;38.790;-77.084;2023-12-20T09:31:10;102762.52;;;14.32;25.56
47809;BME280;33573;38.790;-77.084;2023-12-20T09:33:45;102759.57;;;14.25;25.55
47809;BME280;33573;38.790;-77.084;2023-12-20T09:36:01;102760.46;;;14.27;25.57
47809;BME280;33573;38.790;-77.084;2023-12-20T09:38:26;102763.07;;;14.43;25.64
47809;BME280;33573;38.790;-77.084;2023-12-20T09:40:52;102760.85;;;14.38;25.67
47809;BME280;33573;38.790;-77.084;2023-12-20T09:43:20;102757.33;;;14.17;25.62
47809;BME280;33573;38.790;-77.084;2023-12-20T09:45:45;102754.64;;;14.19;25.61
47809;BME280;33573;38.790;-77.084;2023-12-20T09:48:11;102751.19;;;14.27;25.49
47809;BME280;33573;38.790;-77.084;2023-12-20T09:50:34;102752.29;;;14.11;25.66
47809;BME280;33573;38.790;-77.084;2023-12-20T09:53:01;102751.65;;;14.26;25.68
47809;BME280;33573;38.790;-77.084;2023-12-20T09:55:25;102751.80;;;14.01;25.68
47809;BME280;33573;38.790;-77.084;2023-12-20T09:57:50;102753.96;;;14.35;25.54
47809;BME280;33573;38.790;-77.084;2023-12-20T10:00:16;102752.41;;;14.18;25.69
47809;BME280;33573;38.790;-77.084;2023-12-20T10:02:47;102752.02;;;14.02;25.52
47809;BME280;33573;38.790;-77.084;2023-12-20T10:05:08;102756.54;;;14.06;25.57
47809;BME280;33573;38.790;-77.084;2023-12-20T10:07:32;102759.74;;;14.21;25.62
47809;BME280;33573;38.790;-77.084;2023-12-20T10:09:58;102763.46;;;14.47;25.55
47809;BME280;33573;38.790;-77.084;2023-12-20T10:12:23;102765.97;;;14.05;25.44
47809;BME280;33573;38.790;-77.084;2023-12-20T10:14:54;102762.32;;;13.92;25.53
47809;BME280;33573;38.790;-77.084;2023-12-20T10:17:22;102763.48;;;13.89;25.56
47809;BME280;33573;38.790;-77.084;2023-12-20T10:19:45;102763.98;;;14.12;25.54
47809;BME280;33573;38.790;-77.084;2023-12-20T10:22:11;102761.83;;;14.19;25.51
47809;BME280;33573;38.790;-77.084;2023-12-20T10:24:31;102765.63;;;13.92;25.53
47809;BME280;33573;38.790;-77.084;2023-12-20T10:27:03;102765.16;;;14.02;25.60
47809;BME280;33573;38.790;-77.084;2023-12-20T10:29:27;102765.88;;;13.83;25.54
47809;BME280;33573;38.790;-77.084;2023-12-20T10:31:47;102761.17;;;14.37;25.42
47809;BME280;33573;38.790;-77.084;2023-12-20T10:34:13;102760.11;;;14.13;25.42
47809;BME280;33573;38.790;-77.084;2023-12-20T10:36:38;102758.39;;;14.09;25.41
47809;BME280;33573;38.790;-77.084;2023-12-20T10:39:05;102762.62;;;14.26;25.48
47809;BME280;33573;38.790;-77.084;2023-12-20T10:41:31;102765.62;;;13.91;25.59
47809;BME280;33573;38.790;-77.084;2023-12-20T10:43:57;102770.63;;;13.94;25.57
47809;BME280;33573;38.790;-77.084;2023-12-20T10:46:27;102776.56;;;13.78;25.47
47809;BME280;33573;38.790;-77.084;2023-12-20T10:48:47;102772.18;;;14.05;25.44
47809;BME280;33573;38.790;-77.084;2023-12-20T10:51:12;102776.29;;;13.78;25.49
47809;BME280;33573;38.790;-77.084;2023-12-20T10:53:37;102775.25;;;13.97;25.55
47809;BME280;33573;38.790;-77.084;2023-12-20T10:56:03;102775.04;;;14.17;25.59
47809;BME280;33573;38.790;-77.084;2023-12-20T10:58:28;102778.84;;;13.69;25.50
47809;BME280;33573;38.790;-77.084;2023-12-20T11:00:58;102784.48;;;14.16;25.45
47809;BME280;33573;38.790;-77.084;2023-12-20T11:03:28;102786.73;;;13.69;25.47
47809;BME280;33573;38.790;-77.084;2023-12-20T11:05:50;102792.42;;;14.21;25.47
47809;BME280;33573;38.790;-77.084;2023-12-20T11:08:19;102797.19;;;13.92;25.52
47809;BME280;33573;38.790;-77.084;2023-12-20T11:10:38;102795.73;;;13.91;25.49
47809;BME280;33573;38.790;-77.084;2023-12-20T11:13:07;102796.18;;;13.86;25.55
47809;BME280;33573;38.790;-77.084;2023-12-20T11:15:27;102798.92;;;13.92;25.54
47809;BME280;33573;38.790;-77.084;2023-12-20T11:18:01;102805.52;;;13.72;25.41
47809;BME280;33573;38.790;-77.084;2023-12-20T11:20:17;102811.07;;;13.86;25.46
47809;BME280;33573;38.790;-77.084;2023-12-20T11:22:54;102817.41;;;14.04;25.55
47809;BME280;33573;38.790;-77.084;2023-12-20T11:25:09;102816.81;;;13.78;25.56
47809;BME280;33573;38.790;-77.084;2023-12-20T11:27:41;102819.96;;;13.55;25.57
47809;BME280;33573;38.790;-77.084;2023-12-20T11:29:59;102824.71;;;13.76;25.64
47809;BME280;33573;38.790;-77.084;2023-12-20T11:32:30;102829.74;;;13.78;25.61
47809;BME280;33573;38.790;-77.084;2023-12-20T11:34:56;102831.72;;;13.76;25.55
47809;BME280;33573;38.790;-77.084;2023-12-20T11:37:16;102834.47;;;13.98;25.55
47809;BME280;33573;38.790;-77.084;2023-12-20T11:39:43;102845.09;;;13.79;25.50
47809;BME280;33573;38.790;-77.084;2023-12-20T11:42:12;102853.10;;;13.48;25.48
47809;BME280;33573;38.790;-77.084;2023-12-20T11:44:32;102856.32;;;13.73;25.50
47809;BME280;33573;38.790;-77.084;2023-12-20T11:46:58;102859.82;;;13.73;25.52
47809;BME280;33573;38.790;-77.084;2023-12-20T11:49:24;102860.32;;;13.94;25.56
47809;BME280;33573;38.790;-77.084;2023-12-20T11:51:49;102864.66;;;13.65;25.55
47809;BME280;33573;38.790;-77.084;2023-12-20T11:54:16;102867.76;;;13.87;25.59
47809;BME280;33573;38.790;-77.084;2023-12-20T11:56:45;102865.47;;;13.77;25.69
47809;BME280;33573;38.790;-77.084;2023-12-20T11:59:05;102864.07;;;13.85;25.56
47809;BME280;33573;38.790;-77.084;2023-12-20T12:01:36;102862.83;;;13.64;25.47
47809;BME280;33573;38.790;-77.084;2023-12-20T12:04:04;102865.11;;;13.72;25.42
47809;BME280;33573;38.790;-77.084;2023-12-20T12:06:22;102869.03;;;13.86;25.53
47809;BME280;33573;38.790;-77.084;2023-12-20T12:08:47;102875.60;;;13.78;25.52
47809;BME280;33573;38.790;-77.084;2023-12-20T12:11:13;102879.85;;;13.73;25.65
47809;BME280;33573;38.790;-77.084;2023-12-20T12:13:43;102878.34;;;13.73;25.69
47809;BME280;33573;38.790;-77.084;2023-12-20T12:16:04;102880.13;;;13.49;25.66
47809;BME280;33573;38.790;-77.084;2023-12-20T12:18:29;102878.36;;;13.72;25.60
47809;BME280;33573;38.790;-77.084;2023-12-20T12:21:01;102876.43;;;13.70;25.62
47809;BME280;33573;38.790;-77.084;2023-12-20T12:23:25;102879.26;;;13.47;25.64